Time;durP1;ratioP1;P1;durP2;ratioP2;P2;SDS_P1;SDS_P2;PMS_P1;PMS_P2;Temp;Humidity;BMP_temperature;BMP_pressure;BME280_temperature;BME280_humidity;BME280_pressure;Samples;Min_cycle;Max_cycle;Signal;HPM_P1;HPM_P2
2020/12/10 00:01:36;;;;;;;7.78;4.57;;;;;;;;;;5061904;28;20095;-73
2020/12/10 00:04:03;;;;;;;8.10;4.18;;;;;;;;;;5076705;28;20013;-71
2020/12/10 00:06:29;;;;;;;7.75;5.05;;;;;;;;;;5078108;28;20024;-72
2020/12/10 00:08:55;;;;;;;10.27;5.00;;;;;;;;;;5076104;28;20025;-71
2020/12/10 00:11:21;;;;;;;5.85;2.85;;;;;;;;;;5077658;28;20034;-72
2020/12/10 00:13:48;;;;;;;7.65;3.58;;;;;;;;;;5092608;28;20028;-71
2020/12/10 00:16:14;;;;;;;8.20;3.65;;;;;;;;;;5087746;28;20128;-72
2020/12/10 00:18:40;;;;;;;5.45;2.97;;;;;;;;;;5095846;28;20497;-72
2020/12/10 00:21:07;;;;;;;11.35;4.38;;;;;;;;;;5095914;28;20416;-71
2020/12/10 00:23:34;;;;;;;11.07;4.65;;;;;;;;;;5092443;28;20108;-71
2020/12/10 00:26:01;;;;;;;9.25;4.82;;;;;;;;;;5077679;28;20016;-72
2020/12/10 00:28:27;;;;;;;9.10;4.53;;;;;;;;;;5095828;28;20023;-72
2020/12/10 00:30:53;;;;;;;10.15;5.07;;;;;;;;;;5077641;28;20016;-72
2020/12/10 00:33:19;;;;;;;9.73;5.03;;;;;;;;;;5092659;28;20423;-72
2020/12/10 00:35:45;;;;;;;12.27;4.63;;;;;;;;;;5074860;28;20523;-71
2020/12/10 00:38:11;;;;;;;7.43;4.03;;;;;;;;;;5079124;28;20012;-72
2020/12/10 00:40:37;;;;;;;11.52;5.13;;;;;;;;;;5088056;28;20028;-72
2020/12/10 00:43:03;;;;;;;7.95;3.88;;;;;;;;;;5077457;28;20488;-70
2020/12/10 00:45:31;;;;;;;9.02;3.88;;;;;;;;;;5095175;28;20123;-70
2020/12/10 00:47:57;;;;;;;6.60;3.85;;;;;;;;;;5095466;28;20095;-71
2020/12/10 00:50:23;;;;;;;9.05;4.13;;;;;;;;;;5095500;28;20031;-72
2020/12/10 00:52:49;;;;;;;5.38;3.67;;;;;;;;;;5087449;28;20082;-72
2020/12/10 00:55:15;;;;;;;9.55;4.35;;;;;;;;;;5072006;28;20039;-70
2020/12/10 00:57:42;;;;;;;6.38;3.50;;;;;;;;;;5092260;28;20027;-75
2020/12/10 01:00:09;;;;;;;7.85;3.35;;;;;;;;;;5094408;28;20024;-72
2020/12/10 01:02:35;;;;;;;6.45;3.67;;;;;;;;;;5068622;28;20032;-72
2020/12/10 01:05:01;;;;;;;5.45;3.20;;;;;;;;;;5087940;28;20020;-72
2020/12/10 01:07:27;;;;;;;4.53;2.83;;;;;;;;;;5089227;28;20113;-72
2020/12/10 01:09:53;;;;;;;4.88;3.10;;;;;;;;;;5090473;28;20082;-72
2020/12/10 01:12:19;;;;;;;5.38;3.00;;;;;;;;;;5094684;28;20118;-71
2020/12/10 01:14:48;;;;;;;4.82;3.25;;;;;;;;;;5085119;28;20021;-72
2020/12/10 01:17:14;;;;;;;5.53;3.05;;;;;;;;;;5083151;28;20023;-73
2020/12/10 01:19:40;;;;;;;6.50;3.35;;;;;;;;;;5086393;28;20024;-72
2020/12/10 01:22:06;;;;;;;7.68;3.42;;;;;;;;;;5088504;28;20020;-71
2020/12/10 01:24:32;;;;;;;6.22;3.22;;;;;;;;;;5094656;28;20016;-70
2020/12/10 01:26:58;;;;;;;7.28;3.30;;;;;;;;;;5082644;28;20029;-71
2020/12/10 01:29:24;;;;;;;5.80;2.90;;;;;;;;;;5085925;28;20369;-71
2020/12/10 01:31:51;;;;;;;6.47;2.97;;;;;;;;;;5088076;28;20043;-71
2020/12/10 01:34:17;;;;;;;6.60;3.30;;;;;;;;;;5094764;28;20500;-72
2020/12/10 01:36:43;;;;;;;5.10;3.00;;;;;;;;;;5094953;28;20469;-72
2020/12/10 01:39:09;;;;;;;6.57;3.13;;;;;;;;;;5094935;28;20028;-72
2020/12/10 01:41:35;;;;;;;4.78;2.80;;;;;;;;;;5076646;28;20020;-71
2020/12/10 01:44:05;;;;;;;5.63;3.10;;;;;;;;;;5094360;28;20068;-71
2020/12/10 01:46:31;;;;;;;6.15;3.45;;;;;;;;;;5095083;28;20043;-72
2020/12/10 01:48:58;;;;;;;4.95;3.80;;;;;;;;;;5076322;28;20091;-72
2020/12/10 01:51:24;;;;;;;6.30;3.83;;;;;;;;;;5094390;28;20097;-72
2020/12/10 01:53:50;;;;;;;4.93;2.92;;;;;;;;;;5094611;28;20488;-72
2020/12/10 01:56:17;;;;;;;6.57;3.40;;;;;;;;;;5093830;28;20032;-71
2020/12/10 01:58:43;;;;;;;5.63;3.78;;;;;;;;;;5094466;28;20085;-72
2020/12/10 02:01:09;;;;;;;9.05;3.25;;;;;;;;;;5093819;28;20060;-70
2020/12/10 02:03:35;;;;;;;5.78;3.63;;;;;;;;;;5094211;28;20374;-72
2020/12/10 02:06:01;;;;;;;9.93;3.88;;;;;;;;;;5093942;28;20012;-72
2020/12/10 02:08:27;;;;;;;5.55;3.50;;;;;;;;;;5093628;28;20034;-70
2020/12/10 02:10:53;;;;;;;5.75;3.60;;;;;;;;;;5094632;28;20043;-71
2020/12/10 02:13:19;;;;;;;5.47;3.35;;;;;;;;;;5094256;28;20028;-71
2020/12/10 02:15:49;;;;;;;6.75;3.28;;;;;;;;;;5078729;28;20024;-71
2020/12/10 02:18:15;;;;;;;8.20;4.07;;;;;;;;;;5080375;28;20340;-71
2020/12/10 02:20:41;;;;;;;5.05;3.30;;;;;;;;;;5086654;28;20027;-71
2020/12/10 02:23:08;;;;;;;5.70;3.63;;;;;;;;;;5091187;28;20028;-71
2020/12/10 02:25:34;;;;;;;7.30;4.20;;;;;;;;;;5093403;28;20039;-71
2020/12/10 02:28:01;;;;;;;6.82;3.30;;;;;;;;;;5078556;28;20017;-71
2020/12/10 02:30:28;;;;;;;4.80;2.97;;;;;;;;;;5081395;28;20493;-71
2020/12/10 02:33:00;;;;;;;9.00;3.20;;;;;;;;;;5093922;28;20365;-70
2020/12/10 02:35:30;;;;;;;10.38;3.95;;;;;;;;;;5093926;28;20058;-70
2020/12/10 02:37:57;;;;;;;6.97;3.65;;;;;;;;;;5093168;28;20020;-70
2020/12/10 02:40:27;;;;;;;5.57;3.45;;;;;;;;;;5093810;28;20103;-70
2020/12/10 02:42:53;;;;;;;6.80;4.47;;;;;;;;;;5093379;28;20031;-71
2020/12/10 02:45:19;;;;;;;9.35;4.05;;;;;;;;;;5093152;28;20458;-71
2020/12/10 02:47:45;;;;;;;5.28;4.03;;;;;;;;;;5093481;28;20031;-70
2020/12/10 02:50:12;;;;;;;6.97;3.60;;;;;;;;;;5092980;28;20016;-71
2020/12/10 02:52:38;;;;;;;8.73;4.30;;;;;;;;;;5074774;28;20024;-70
2020/12/10 02:55:04;;;;;;;6.20;4.22;;;;;;;;;;5093602;28;20066;-72
2020/12/10 02:57:30;;;;;;;8.80;4.68;;;;;;;;;;5093219;28;20077;-72
2020/12/10 02:59:56;;;;;;;7.20;3.58;;;;;;;;;;5093320;28;20016;-70
2020/12/10 03:02:22;;;;;;;8.68;4.80;;;;;;;;;;5093384;28;20016;-73
2020/12/10 03:04:48;;;;;;;7.28;3.70;;;;;;;;;;5093211;28;20047;-72
2020/12/10 03:07:15;;;;;;;8.60;4.20;;;;;;;;;;5093072;28;20024;-70
2020/12/10 03:09:44;;;;;;;7.15;3.72;;;;;;;;;;5092886;28;20048;-69
2020/12/10 03:12:11;;;;;;;6.70;3.63;;;;;;;;;;5092564;28;20027;-70
2020/12/10 03:14:37;;;;;;;5.78;3.08;;;;;;;;;;5083753;28;20025;-71
2020/12/10 03:17:04;;;;;;;6.50;3.75;;;;;;;;;;5079210;28;20028;-71
2020/12/10 03:19:30;;;;;;;5.15;3.05;;;;;;;;;;5085099;28;20054;-70
2020/12/10 03:21:56;;;;;;;8.10;3.63;;;;;;;;;;5092670;28;20061;-71
2020/12/10 03:24:22;;;;;;;7.60;4.38;;;;;;;;;;5092972;28;20035;-71
2020/12/10 03:26:48;;;;;;;8.07;3.17;;;;;;;;;;5092458;28;20035;-71
2020/12/10 03:29:14;;;;;;;6.95;3.42;;;;;;;;;;5092877;28;20050;-71
2020/12/10 03:31:40;;;;;;;8.13;4.40;;;;;;;;;;5092420;28;20031;-71
2020/12/10 03:34:07;;;;;;;9.07;4.45;;;;;;;;;;5090269;28;20377;-71
2020/12/10 03:36:46;;;;;;;9.35;5.97;;;;;;;;;;5092666;28;20024;-72
2020/12/10 03:39:12;;;;;;;9.05;5.22;;;;;;;;;;5092604;28;20107;-71
2020/12/10 03:41:38;;;;;;;10.50;5.20;;;;;;;;;;5092882;28;20570;-71
2020/12/10 03:44:04;;;;;;;8.23;5.18;;;;;;;;;;5092419;28;20059;-70
2020/12/10 03:46:30;;;;;;;12.07;6.68;;;;;;;;;;5091227;28;20469;-71
2020/12/10 03:48:56;;;;;;;11.82;6.75;;;;;;;;;;5087066;28;20024;-72
2020/12/10 03:51:22;;;;;;;9.20;6.32;;;;;;;;;;5071516;28;20080;-70
2020/12/10 03:53:48;;;;;;;12.25;5.78;;;;;;;;;;5071137;28;20469;-70
2020/12/10 03:56:14;;;;;;;9.85;5.85;;;;;;;;;;5086731;28;20420;-71
2020/12/10 03:58:40;;;;;;;12.43;6.13;;;;;;;;;;5091975;28;20020;-71
2020/12/10 04:01:07;;;;;;;9.65;4.90;;;;;;;;;;5087341;28;20095;-71
2020/12/10 04:03:33;;;;;;;10.48;4.47;;;;;;;;;;5090190;28;20024;-70
2020/12/10 04:05:59;;;;;;;9.35;4.82;;;;;;;;;;5082289;28;20021;-70
2020/12/10 04:08:25;;;;;;;7.47;4.47;;;;;;;;;;5089215;28;20096;-71
2020/12/10 04:10:51;;;;;;;7.05;3.63;;;;;;;;;;5088644;28;20051;-70
2020/12/10 04:13:17;;;;;;;7.10;4.25;;;;;;;;;;5092347;28;20503;-72
2020/12/10 04:15:43;;;;;;;8.95;5.10;;;;;;;;;;5088450;28;20095;-70
2020/12/10 04:18:09;;;;;;;13.32;5.85;;;;;;;;;;5065700;28;20065;-71
2020/12/10 04:20:35;;;;;;;8.05;5.22;;;;;;;;;;5086882;28;20020;-71
2020/12/10 04:23:01;;;;;;;12.38;6.75;;;;;;;;;;5092039;28;20035;-69
2020/12/10 04:25:27;;;;;;;11.95;5.53;;;;;;;;;;5092188;28;20046;-69
2020/12/10 04:27:53;;;;;;;14.80;7.85;;;;;;;;;;5092839;28;20055;-71
2020/12/10 04:30:21;;;;;;;16.00;9.27;;;;;;;;;;5091887;28;20078;-70
2020/12/10 04:32:47;;;;;;;16.13;10.10;;;;;;;;;;5082657;28;20020;-70
2020/12/10 04:35:13;;;;;;;16.65;8.55;;;;;;;;;;5091869;28;20032;-70
2020/12/10 04:37:41;;;;;;;11.23;6.47;;;;;;;;;;5092293;28;20039;-69
2020/12/10 04:40:07;;;;;;;16.48;7.80;;;;;;;;;;5074249;28;20042;-69
2020/12/10 04:42:34;;;;;;;17.20;9.35;;;;;;;;;;5093549;28;20469;-68
2020/12/10 04:45:00;;;;;;;14.80;8.00;;;;;;;;;;5095800;28;20023;-69
2020/12/10 04:47:28;;;;;;;14.93;6.95;;;;;;;;;;5093539;28;20028;-69
2020/12/10 04:49:56;;;;;;;14.23;5.97;;;;;;;;;;5090404;28;20032;-69
2020/12/10 04:52:25;;;;;;;10.48;4.65;;;;;;;;;;5070560;28;20077;-69
2020/12/10 04:54:51;;;;;;;14.98;6.65;;;;;;;;;;5090448;28;20103;-71
2020/12/10 04:57:18;;;;;;;10.65;5.63;;;;;;;;;;5092482;28;20031;-70
2020/12/10 04:59:44;;;;;;;11.38;5.55;;;;;;;;;;5074893;28;20024;-71
2020/12/10 05:02:11;;;;;;;15.60;5.97;;;;;;;;;;5089498;28;20034;-70
2020/12/10 05:04:37;;;;;;;9.55;5.65;;;;;;;;;;5094726;28;20516;-69
2020/12/10 05:07:03;;;;;;;12.25;6.13;;;;;;;;;;5092374;28;20089;-71
2020/12/10 05:09:29;;;;;;;11.90;6.32;;;;;;;;;;5086300;28;20051;-70
2020/12/10 05:11:55;;;;;;;12.60;5.90;;;;;;;;;;5094186;28;20498;-71
2020/12/10 05:14:22;;;;;;;11.63;6.13;;;;;;;;;;5095103;28;20032;-71
2020/12/10 05:16:48;;;;;;;11.02;5.55;;;;;;;;;;5093840;28;20027;-71
2020/12/10 05:19:20;;;;;;;9.50;5.47;;;;;;;;;;5077969;28;20025;-71
2020/12/10 05:22:02;;;;;;;9.82;6.28;;;;;;;;;;5085344;28;20016;-71
2020/12/10 05:24:29;;;;;;;9.23;5.05;;;;;;;;;;5085121;28;20036;-70
2020/12/10 05:27:32;;;;;;;10.82;5.25;;;;;;;;;;5089113;28;20013;-71
2020/12/10 05:29:58;;;;;;;12.32;6.78;;;;;;;;;;4996231;28;20018;-71
2020/12/10 05:32:35;;;;;;;15.63;7.22;;;;;;;;;;5003117;28;20072;-72
2020/12/10 05:35:12;;;;;;;9.95;6.75;;;;;;;;;;5008687;28;20492;-72
2020/12/10 05:37:39;;;;;;;9.35;5.15;;;;;;;;;;5005729;28;20057;-71
2020/12/10 05:40:05;;;;;;;11.20;5.97;;;;;;;;;;4993491;28;20121;-72
2020/12/10 05:42:37;;;;;;;11.13;5.28;;;;;;;;;;4996440;28;20029;-71
2020/12/10 05:45:11;;;;;;;10.35;6.13;;;;;;;;;;4987319;28;20030;-72
2020/12/10 05:47:56;;;;;;;13.05;6.32;;;;;;;;;;5005539;28;20026;-71
2020/12/10 05:50:26;;;;;;;10.90;6.07;;;;;;;;;;4998790;28;20034;-69
2020/12/10 05:53:00;;;;;;;16.33;7.75;;;;;;;;;;4987989;28;20488;-70
2020/12/10 05:55:27;;;;;;;23.02;12.10;;;;;;;;;;5002173;28;20062;-69
2020/12/10 05:57:54;;;;;;;18.52;10.73;;;;;;;;;;5002173;28;20042;-70
2020/12/10 06:00:20;;;;;;;22.42;12.10;;;;;;;;;;5005454;28;20032;-70
2020/12/10 06:02:47;;;;;;;22.27;12.05;;;;;;;;;;4996882;28;20115;-72
2020/12/10 06:05:14;;;;;;;21.48;11.30;;;;;;;;;;5082418;28;20342;-71
2020/12/10 06:07:40;;;;;;;24.20;11.75;;;;;;;;;;5078292;28;20020;-72
2020/12/10 06:10:06;;;;;;;19.08;9.18;;;;;;;;;;5076574;28;20572;-71
2020/12/10 06:12:32;;;;;;;18.85;9.88;;;;;;;;;;5079615;28;20020;-70
2020/12/10 06:14:58;;;;;;;36.15;16.83;;;;;;;;;;5082345;28;20074;-72
2020/12/10 06:17:25;;;;;;;32.95;17.05;;;;;;;;;;5092360;28;20028;-70
2020/12/10 06:19:51;;;;;;;28.23;14.23;;;;;;;;;;5086627;28;20028;-70
2020/12/10 06:22:26;;;;;;;25.58;12.63;;;;;;;;;;5092354;28;20115;-70
2020/12/10 06:24:57;;;;;;;28.58;14.15;;;;;;;;;;5089863;28;20500;-70
2020/12/10 06:27:23;;;;;;;30.42;14.88;;;;;;;;;;5075477;28;20024;-74
2020/12/10 06:29:49;;;;;;;30.33;16.35;;;;;;;;;;5057192;28;20050;-70
2020/12/10 06:32:18;;;;;;;24.98;13.88;;;;;;;;;;5085034;28;20406;-70
2020/12/10 06:34:55;;;;;;;30.58;16.92;;;;;;;;;;5091279;28;20024;-71
2020/12/10 06:37:22;;;;;;;36.00;20.90;;;;;;;;;;5086430;28;20047;-71
2020/12/10 06:39:49;;;;;;;36.83;20.50;;;;;;;;;;5085251;28;20533;-72
2020/12/10 06:42:15;;;;;;;27.15;16.73;;;;;;;;;;5061211;28;20028;-70
2020/12/10 06:44:41;;;;;;;25.73;13.07;;;;;;;;;;5080935;28;20120;-71
2020/12/10 06:47:07;;;;;;;20.52;12.68;;;;;;;;;;5090936;28;20469;-72
2020/12/10 06:49:35;;;;;;;21.08;12.73;;;;;;;;;;5085625;28;20085;-71
2020/12/10 06:52:07;;;;;;;37.33;20.95;;;;;;;;;;5087821;28;20017;-72
2020/12/10 06:54:34;;;;;;;56.95;33.75;;;;;;;;;;5092820;28;20073;-71
2020/12/10 06:57:04;;;;;;;54.58;28.75;;;;;;;;;;5090140;28;20097;-72
2020/12/10 06:59:43;;;;;;;54.10;32.47;;;;;;;;;;5075048;28;20020;-71
2020/12/10 07:02:14;;;;;;;32.25;16.77;;;;;;;;;;5087045;28;20055;-71
2020/12/10 07:04:50;;;;;;;33.95;20.17;;;;;;;;;;5089108;28;20157;-72
2020/12/10 07:07:25;;;;;;;34.17;16.67;;;;;;;;;;5090623;28;20012;-72
2020/12/10 07:09:56;;;;;;;32.47;17.58;;;;;;;;;;5088409;28;20487;-71
2020/12/10 07:12:25;;;;;;;28.35;15.63;;;;;;;;;;5092606;28;20080;-72
2020/12/10 07:14:52;;;;;;;24.55;13.98;;;;;;;;;;5093049;28;20028;-72
2020/12/10 07:17:18;;;;;;;18.08;8.73;;;;;;;;;;5092489;28;20381;-71
2020/12/10 07:19:44;;;;;;;16.42;8.25;;;;;;;;;;5093271;28;20466;-73
2020/12/10 07:22:11;;;;;;;21.67;11.30;;;;;;;;;;5083287;28;20037;-74
2020/12/10 07:24:37;;;;;;;22.33;11.38;;;;;;;;;;5080713;28;20024;-71
2020/12/10 07:27:04;;;;;;;28.92;15.70;;;;;;;;;;5080287;28;20505;-70
2020/12/10 07:29:30;;;;;;;33.22;14.65;;;;;;;;;;5075386;28;20024;-72
2020/12/10 07:31:56;;;;;;;34.50;16.98;;;;;;;;;;5066498;28;20039;-73
2020/12/10 07:34:22;;;;;;;34.05;17.83;;;;;;;;;;5082865;28;20100;-70
2020/12/10 07:36:50;;;;;;;32.63;17.35;;;;;;;;;;5079149;28;20104;-70
2020/12/10 07:39:28;;;;;;;25.75;14.05;;;;;;;;;;5082828;28;20024;-71
2020/12/10 07:41:54;;;;;;;41.60;22.65;;;;;;;;;;5082661;28;20103;-71
2020/12/10 07:44:27;;;;;;;37.40;18.65;;;;;;;;;;5088760;28;20408;-70
2020/12/10 07:46:53;;;;;;;51.88;26.15;;;;;;;;;;5091818;28;20095;-69
2020/12/10 07:49:29;;;;;;;52.17;27.77;;;;;;;;;;5091060;28;20473;-72
2020/12/10 07:52:05;;;;;;;47.45;27.23;;;;;;;;;;5090103;28;20036;-71
2020/12/10 07:54:49;;;;;;;57.17;29.88;;;;;;;;;;5089313;28;20489;-70
2020/12/10 07:57:35;;;;;;;49.58;28.27;;;;;;;;;;5090197;28;20103;-73
2020/12/10 08:00:04;;;;;;;48.30;25.55;;;;;;;;;;5058643;28;20032;-70
2020/12/10 08:02:49;;;;;;;37.33;22.95;;;;;;;;;;5090344;28;20024;-70
2020/12/10 08:05:18;;;;;;;39.40;23.65;;;;;;;;;;5088824;28;20028;-69
2020/12/10 08:07:46;;;;;;;36.33;20.38;;;;;;;;;;5088739;28;20070;-71
2020/12/10 08:10:22;;;;;;;41.47;23.60;;;;;;;;;;5070267;28;20478;-69
2020/12/10 08:13:07;;;;;;;41.58;24.13;;;;;;;;;;5091952;28;20077;-72
2020/12/10 08:15:33;;;;;;;42.17;23.65;;;;;;;;;;5090486;28;20469;-68
2020/12/10 08:18:06;;;;;;;43.33;21.42;;;;;;;;;;5090627;28;20024;-72
2020/12/10 08:20:35;;;;;;;40.53;19.88;;;;;;;;;;5090997;28;20073;-68
2020/12/10 08:23:02;;;;;;;34.47;18.65;;;;;;;;;;5096350;28;20020;-71
2020/12/10 08:25:28;;;;;;;33.95;18.38;;;;;;;;;;5096075;28;20462;-71
2020/12/10 08:27:56;;;;;;;28.98;16.33;;;;;;;;;;5078786;28;20020;-71
2020/12/10 08:30:23;;;;;;;26.52;14.48;;;;;;;;;;5075481;28;20489;-71
2020/12/10 08:32:50;;;;;;;26.60;14.77;;;;;;;;;;5080119;28;20032;-70
2020/12/10 08:35:16;;;;;;;27.75;14.20;;;;;;;;;;5077111;28;20020;-72
2020/12/10 08:37:42;;;;;;;24.92;14.65;;;;;;;;;;5078074;28;20024;-71
2020/12/10 08:40:09;;;;;;;20.52;9.13;;;;;;;;;;5080169;28;20012;-71
2020/12/10 08:42:35;;;;;;;18.23;10.00;;;;;;;;;;5080741;28;20026;-72
2020/12/10 08:45:01;;;;;;;18.88;9.38;;;;;;;;;;5078038;28;20031;-70
2020/12/10 08:47:30;;;;;;;23.38;11.07;;;;;;;;;;5077279;28;20039;-71
2020/12/10 08:50:28;;;;;;;15.15;9.60;;;;;;;;;;5079755;28;20016;-70
2020/12/10 08:53:00;;;;;;;18.60;10.15;;;;;;;;;;5076716;28;20021;-72
2020/12/10 08:55:26;;;;;;;20.33;11.35;;;;;;;;;;5073981;28;20020;-71
2020/12/10 08:57:52;;;;;;;17.38;10.98;;;;;;;;;;5077203;28;20035;-72
2020/12/10 09:00:18;;;;;;;18.75;10.98;;;;;;;;;;5095241;28;20040;-70
2020/12/10 09:02:45;;;;;;;19.35;10.25;;;;;;;;;;5095663;28;20024;-72
2020/12/10 09:05:11;;;;;;;24.40;12.07;;;;;;;;;;5095050;28;20024;-71
2020/12/10 09:07:37;;;;;;;16.85;10.48;;;;;;;;;;5095271;28;20123;-72
2020/12/10 09:10:06;;;;;;;18.45;11.25;;;;;;;;;;5094151;28;20055;-71
2020/12/10 09:12:32;;;;;;;22.83;12.57;;;;;;;;;;5083049;28;20039;-72
2020/12/10 09:14:58;;;;;;;14.52;6.43;;;;;;;;;;5095281;28;20030;-71
2020/12/10 09:17:24;;;;;;;13.85;8.73;;;;;;;;;;5077506;28;20054;-71
2020/12/10 09:19:51;;;;;;;9.88;5.82;;;;;;;;;;5077823;28;20028;-72
2020/12/10 09:22:17;;;;;;;11.77;7.30;;;;;;;;;;5095018;28;20473;-73
2020/12/10 09:24:43;;;;;;;10.85;7.43;;;;;;;;;;5077384;28;20028;-72
2020/12/10 09:27:09;;;;;;;13.77;6.82;;;;;;;;;;5077093;28;20028;-71
2020/12/10 09:29:39;;;;;;;13.15;8.07;;;;;;;;;;5087523;28;20016;-72
2020/12/10 09:32:06;;;;;;;20.40;10.00;;;;;;;;;;5070867;28;20024;-71
2020/12/10 09:34:32;;;;;;;11.40;7.22;;;;;;;;;;5095335;28;20066;-72
2020/12/10 09:37:01;;;;;;;11.90;7.22;;;;;;;;;;5094847;28;20054;-72
2020/12/10 09:39:28;;;;;;;15.60;8.82;;;;;;;;;;5086963;28;20024;-71
2020/12/10 09:41:56;;;;;;;14.77;7.28;;;;;;;;;;5095022;28;20478;-72
2020/12/10 09:44:24;;;;;;;14.48;9.70;;;;;;;;;;5094959;28;20039;-75
2020/12/10 09:46:50;;;;;;;23.30;11.60;;;;;;;;;;5094850;28;20028;-71
2020/12/10 09:49:16;;;;;;;25.20;11.18;;;;;;;;;;5094635;28;20042;-73
2020/12/10 09:51:54;;;;;;;27.45;12.98;;;;;;;;;;5095191;28;20361;-73
2020/12/10 09:59:41;;;;;;;31.25;14.68;;;;;;;;;;5094674;28;20503;-74
2020/12/10 10:02:08;;;;;;;22.13;12.10;;;;;;;;;;5094313;28;20020;-77
2020/12/10 10:04:35;;;;;;;25.00;12.57;;;;;;;;;;5076314;28;20382;-72
2020/12/10 10:07:06;;;;;;;14.93;10.15;;;;;;;;;;5076329;28;20031;-73
2020/12/10 10:09:32;;;;;;;15.30;9.10;;;;;;;;;;5094188;28;20060;-72
2020/12/10 10:11:59;;;;;;;14.13;7.93;;;;;;;;;;5075740;28;20028;-72
2020/12/10 10:14:25;;;;;;;17.33;10.77;;;;;;;;;;5094636;28;20052;-78
2020/12/10 10:16:54;;;;;;;15.38;10.40;;;;;;;;;;5094499;28;20039;-71
2020/12/10 10:19:21;;;;;;;27.60;11.45;;;;;;;;;;5094496;28;20016;-73
2020/12/10 10:21:47;;;;;;;30.08;11.98;;;;;;;;;;5090933;28;20060;-74
2020/12/10 10:24:13;;;;;;;17.90;12.25;;;;;;;;;;5093706;28;20103;-75
2020/12/10 10:26:40;;;;;;;34.05;14.43;;;;;;;;;;5094658;28;20020;-73
2020/12/10 10:29:08;;;;;;;27.83;16.67;;;;;;;;;;5093950;28;20028;-72
2020/12/10 10:31:35;;;;;;;31.35;15.82;;;;;;;;;;5094163;28;20074;-72
2020/12/10 10:34:01;;;;;;;27.63;13.45;;;;;;;;;;5094018;28;20043;-72
2020/12/10 10:36:27;;;;;;;19.92;13.48;;;;;;;;;;5093965;28;20031;-70
2020/12/10 10:38:53;;;;;;;28.63;12.57;;;;;;;;;;5093724;28;20095;-72
2020/12/10 10:41:19;;;;;;;37.72;18.20;;;;;;;;;;5076175;28;20047;-73
2020/12/10 10:43:45;;;;;;;29.15;15.15;;;;;;;;;;5093906;28;20028;-71
2020/12/10 10:46:17;;;;;;;25.00;14.05;;;;;;;;;;5093373;28;20031;-71
2020/12/10 10:48:43;;;;;;;19.90;11.50;;;;;;;;;;5075789;28;20020;-71
2020/12/10 10:51:11;;;;;;;20.13;11.75;;;;;;;;;;5093832;28;20023;-71
2020/12/10 10:53:37;;;;;;;15.00;8.60;;;;;;;;;;5093507;28;20377;-70
2020/12/10 10:56:04;;;;;;;18.75;9.82;;;;;;;;;;5093562;28;20027;-78
2020/12/10 10:58:30;;;;;;;13.20;9.25;;;;;;;;;;5093776;28;20457;-73
2020/12/10 11:00:56;;;;;;;15.20;9.98;;;;;;;;;;5093431;28;20031;-73
2020/12/10 11:03:29;;;;;;;12.48;7.85;;;;;;;;;;5093223;28;20081;-71
2020/12/10 11:05:58;;;;;;;15.43;9.60;;;;;;;;;;5094248;28;20020;-74
2020/12/10 11:08:27;;;;;;;29.80;13.35;;;;;;;;;;5075092;28;20050;-73
2020/12/10 11:10:53;;;;;;;13.85;9.43;;;;;;;;;;5093786;28;20060;-71
2020/12/10 11:13:20;;;;;;;16.00;10.20;;;;;;;;;;5093297;28;20028;-74
2020/12/10 11:15:49;;;;;;;20.50;9.10;;;;;;;;;;5093342;28;20035;-72
2020/12/10 11:18:15;;;;;;;10.43;6.85;;;;;;;;;;5074932;28;20031;-72
2020/12/10 11:20:45;;;;;;;15.00;8.15;;;;;;;;;;5092798;28;20020;-71
2020/12/10 11:23:12;;;;;;;10.25;6.40;;;;;;;;;;5093274;28;20035;-70
2020/12/10 11:25:38;;;;;;;11.65;6.30;;;;;;;;;;5093170;28;20024;-70
2020/12/10 11:28:04;;;;;;;10.70;6.38;;;;;;;;;;5093936;28;20020;-71
2020/12/10 11:30:30;;;;;;;13.73;7.30;;;;;;;;;;5092983;28;20020;-73
2020/12/10 11:32:56;;;;;;;12.00;7.53;;;;;;;;;;5092891;28;20031;-70
2020/12/10 11:35:22;;;;;;;14.43;9.80;;;;;;;;;;5093046;28;20035;-72
2020/12/10 11:37:50;;;;;;;18.73;10.43;;;;;;;;;;5092750;28;20024;-71
2020/12/10 11:40:16;;;;;;;16.63;9.85;;;;;;;;;;5093190;28;20103;-71
2020/12/10 11:42:42;;;;;;;18.17;10.02;;;;;;;;;;5092403;28;20077;-70
2020/12/10 11:45:09;;;;;;;14.70;9.23;;;;;;;;;;5075016;28;20024;-71
2020/12/10 11:47:35;;;;;;;18.05;8.85;;;;;;;;;;5089930;28;20412;-70
2020/12/10 11:50:01;;;;;;;16.92;10.10;;;;;;;;;;5081086;28;20059;-70
2020/12/10 11:52:27;;;;;;;15.77;9.57;;;;;;;;;;5094647;28;20024;-70
2020/12/10 11:54:53;;;;;;;14.05;8.35;;;;;;;;;;5096036;28;20024;-73
2020/12/10 11:57:19;;;;;;;15.02;8.25;;;;;;;;;;5096281;28;20621;-72
2020/12/10 11:59:45;;;;;;;8.38;5.65;;;;;;;;;;5097244;28;20030;-72
2020/12/10 12:02:11;;;;;;;14.85;6.28;;;;;;;;;;5096383;28;20089;-72
2020/12/10 12:04:37;;;;;;;17.52;6.60;;;;;;;;;;5096790;28;20028;-72
2020/12/10 12:07:04;;;;;;;18.15;7.93;;;;;;;;;;5096526;28;20074;-76
2020/12/10 12:09:31;;;;;;;12.10;8.15;;;;;;;;;;5096454;28;20044;-71
2020/12/10 12:12:02;;;;;;;16.48;9.20;;;;;;;;;;5097114;28;20107;-73
2020/12/10 12:14:28;;;;;;;13.15;7.80;;;;;;;;;;5096931;28;20089;-71
2020/12/10 12:16:54;;;;;;;12.98;7.70;;;;;;;;;;5096114;28;20047;-72
2020/12/10 12:19:21;;;;;;;15.10;8.55;;;;;;;;;;5095935;28;20603;-73
2020/12/10 12:21:50;;;;;;;24.90;14.65;;;;;;;;;;5096194;28;20457;-73
2020/12/10 12:24:17;;;;;;;29.25;15.05;;;;;;;;;;5095884;28;20020;-71
2020/12/10 12:26:44;;;;;;;25.45;14.18;;;;;;;;;;5096026;28;20466;-72
2020/12/10 12:29:10;;;;;;;25.75;12.45;;;;;;;;;;5095901;28;20458;-71
2020/12/10 12:31:38;;;;;;;20.38;11.18;;;;;;;;;;5094166;28;20028;-71
2020/12/10 12:34:04;;;;;;;20.33;11.50;;;;;;;;;;5093990;28;20020;-69
2020/12/10 12:36:30;;;;;;;11.25;7.25;;;;;;;;;;5096086;28;20024;-70
2020/12/10 12:38:56;;;;;;;9.40;5.97;;;;;;;;;;5095369;28;20019;-71
2020/12/10 12:41:29;;;;;;;11.18;8.13;;;;;;;;;;5095751;28;20043;-70
2020/12/10 12:43:56;;;;;;;9.35;6.32;;;;;;;;;;5095341;28;20034;-70
2020/12/10 12:46:22;;;;;;;11.13;6.90;;;;;;;;;;5096152;28;20374;-70
2020/12/10 12:48:51;;;;;;;18.38;10.38;;;;;;;;;;5096478;28;20081;-73
2020/12/10 12:51:18;;;;;;;15.90;9.50;;;;;;;;;;5096238;28;20055;-71
2020/12/10 12:53:45;;;;;;;13.88;9.98;;;;;;;;;;5096356;28;20420;-71
2020/12/10 12:56:11;;;;;;;19.30;10.90;;;;;;;;;;5095749;28;20103;-70
2020/12/10 12:58:37;;;;;;;18.02;9.30;;;;;;;;;;5095661;28;20020;-71
2020/12/10 13:01:04;;;;;;;20.70;10.68;;;;;;;;;;5095429;28;20073;-72
2020/12/10 13:03:30;;;;;;;18.60;9.93;;;;;;;;;;5092285;28;20132;-73
2020/12/10 13:05:56;;;;;;;11.88;7.57;;;;;;;;;;5095426;28;20020;-72
2020/12/10 13:08:22;;;;;;;16.00;7.70;;;;;;;;;;5095526;28;20480;-71
2020/12/10 13:10:48;;;;;;;12.65;6.68;;;;;;;;;;5089716;28;20406;-70
2020/12/10 13:13:15;;;;;;;22.17;12.45;;;;;;;;;;5087850;28;20024;-71
2020/12/10 13:15:42;;;;;;;44.80;21.08;;;;;;;;;;5095025;28;20136;-73
2020/12/10 13:18:10;;;;;;;50.78;24.58;;;;;;;;;;5095623;28;20027;-72
2020/12/10 13:20:37;;;;;;;53.85;26.63;;;;;;;;;;5093357;28;20028;-71
2020/12/10 13:23:03;;;;;;;55.20;28.10;;;;;;;;;;5084613;28;20032;-72
2020/12/10 13:25:29;;;;;;;38.53;21.90;;;;;;;;;;5095675;28;20496;-72
2020/12/10 13:27:56;;;;;;;44.95;24.05;;;;;;;;;;5094585;28;20060;-72
2020/12/10 13:30:23;;;;;;;55.40;27.70;;;;;;;;;;5076993;28;20031;-72
2020/12/10 13:32:50;;;;;;;47.53;24.55;;;;;;;;;;5094737;28;20023;-71
2020/12/10 13:35:16;;;;;;;42.47;26.70;;;;;;;;;;5095235;28;20474;-72
2020/12/10 13:37:42;;;;;;;52.05;29.00;;;;;;;;;;5094973;28;20024;-71
2020/12/10 13:40:08;;;;;;;52.50;32.33;;;;;;;;;;5094138;28;20053;-71
2020/12/10 13:42:36;;;;;;;64.28;35.50;;;;;;;;;;5094238;28;20138;-73
2020/12/10 13:45:03;;;;;;;69.68;34.45;;;;;;;;;;5092054;28;20047;-69
2020/12/10 13:47:31;;;;;;;70.10;41.70;;;;;;;;;;5085686;28;20063;-71
2020/12/10 13:49:57;;;;;;;89.43;42.42;;;;;;;;;;5094430;28;20027;-72
2020/12/10 13:52:24;;;;;;;76.65;38.85;;;;;;;;;;5093439;28;20110;-73
2020/12/10 13:54:51;;;;;;;83.18;40.47;;;;;;;;;;5093319;28;20036;-72
2020/12/10 13:57:17;;;;;;;75.70;41.13;;;;;;;;;;5091234;28;20377;-72
2020/12/10 13:59:43;;;;;;;85.43;43.83;;;;;;;;;;5094373;28;20078;-72
2020/12/10 14:02:09;;;;;;;110.32;55.95;;;;;;;;;;5093969;28;20103;-72
2020/12/10 14:04:35;;;;;;;140.57;67.85;;;;;;;;;;5093652;28;20031;-71
2020/12/10 14:07:02;;;;;;;134.65;67.63;;;;;;;;;;5090944;28;20028;-73
2020/12/10 14:09:28;;;;;;;116.57;61.15;;;;;;;;;;5093134;28;20133;-72
2020/12/10 14:11:58;;;;;;;91.30;51.38;;;;;;;;;;5089735;28;20370;-73
2020/12/10 14:14:24;;;;;;;86.50;47.78;;;;;;;;;;5092730;28;20428;-71
2020/12/10 14:16:50;;;;;;;77.75;42.33;;;;;;;;;;5093059;28;20047;-72
2020/12/10 14:19:16;;;;;;;68.18;37.50;;;;;;;;;;5093519;28;20032;-74
2020/12/10 14:21:42;;;;;;;64.10;32.45;;;;;;;;;;5074507;28;20024;-73
2020/12/10 14:24:08;;;;;;;64.95;32.85;;;;;;;;;;5093684;28;20032;-73
2020/12/10 14:26:34;;;;;;;57.92;27.17;;;;;;;;;;5075309;28;20070;-73
2020/12/10 14:29:00;;;;;;;65.63;30.33;;;;;;;;;;5092616;28;20496;-73
2020/12/10 14:31:27;;;;;;;64.47;32.60;;;;;;;;;;5091690;28;20013;-74
2020/12/10 14:33:54;;;;;;;51.42;27.33;;;;;;;;;;5073550;28;20021;-73
2020/12/10 14:36:23;;;;;;;63.38;30.90;;;;;;;;;;5071616;28;20035;-74